createdAt,value
2023-03-13T00:01:45.671Z,4.20
2023-03-13T00:04:12.765Z,4.17
2023-03-13T00:06:43.132Z,4.17
2023-03-13T00:09:12.701Z,3.97
2023-03-13T00:11:40.820Z,3.73
2023-03-13T00:14:15.055Z,3.93
2023-03-13T00:16:44.315Z,4.33
2023-03-13T00:19:11.486Z,4.30
2023-03-13T00:21:41.938Z,4.07
2023-03-13T00:24:12.632Z,4.20
2023-03-13T00:26:40.968Z,4.10
2023-03-13T00:29:11.166Z,3.20
2023-03-13T00:31:38.671Z,3.33
2023-03-13T00:34:09.558Z,3.37
2023-03-13T00:36:38.709Z,3.53
2023-03-13T00:39:07.516Z,3.63
2023-03-13T00:41:37.041Z,3.33
2023-03-13T00:44:10.233Z,4.40
2023-03-13T00:46:39.291Z,4.07
2023-03-13T00:49:06.781Z,3.97
2023-03-13T00:51:33.877Z,3.40
2023-03-13T00:54:01.132Z,3.43
2023-03-13T00:56:29.431Z,3.03
2023-03-13T00:58:56.660Z,3.77
2023-03-13T01:01:26.249Z,3.43
2023-03-13T01:03:57.427Z,3.73
2023-03-13T01:06:29.987Z,3.70
2023-03-13T01:08:57.614Z,3.57
2023-03-13T01:11:30.124Z,3.50
2023-03-13T01:14:01.846Z,2.90
2023-03-13T01:16:31.825Z,3.37
2023-03-13T01:19:11.897Z,3.07
2023-03-13T01:21:44.182Z,2.77
2023-03-13T01:24:13.286Z,3.43
2023-03-13T01:26:40.687Z,3.10
2023-03-13T01:29:10.862Z,2.93
2023-03-13T01:31:41.009Z,2.30
2023-03-13T01:34:11.601Z,2.57
2023-03-13T01:36:39.806Z,1.80
2023-03-13T01:39:08.844Z,2.30
2023-03-13T01:41:38.230Z,2.23
2023-03-13T01:44:27.539Z,2.50
2023-03-13T01:46:55.646Z,2.10
2023-03-13T01:49:34.851Z,2.13
2023-03-13T01:52:09.559Z,2.23
2023-03-13T01:54:59.755Z,2.33
2023-03-13T01:57:33.628Z,2.47
2023-03-13T02:00:13.211Z,2.50
2023-03-13T02:02:48.573Z,2.13
2023-03-13T02:05:21.569Z,2.77
2023-03-13T02:07:57.216Z,2.60
2023-03-13T02:10:26.747Z,2.53
2023-03-13T02:12:54.245Z,2.60
2023-03-13T02:15:25.834Z,2.40
2023-03-13T02:17:55.051Z,3.00
2023-03-13T02:20:22.925Z,2.87
2023-03-13T02:23:27.331Z,2.33
2023-03-13T02:26:00.632Z,2.60
2023-03-13T02:28:34.051Z,3.10
2023-03-13T02:31:01.586Z,2.97
2023-03-13T02:33:39.444Z,3.23
2023-03-13T02:36:08.177Z,3.43
2023-03-13T02:38:55.316Z,3.30
2023-03-13T02:41:24.814Z,3.40
2023-03-13T02:43:51.856Z,4.10
2023-03-13T02:46:21.647Z,4.23
2023-03-13T02:48:53.055Z,3.83
2023-03-13T02:51:30.016Z,3.70
2023-03-13T02:54:01.752Z,4.07
2023-03-13T02:56:35.843Z,3.67
2023-03-13T02:59:06.987Z,3.83
2023-03-13T03:01:34.982Z,4.60
2023-03-13T03:04:04.183Z,4.13
2023-03-13T03:06:31.339Z,3.90
2023-03-13T03:08:59.790Z,4.10
2023-03-13T03:11:29.836Z,4.00
2023-03-13T03:13:57.811Z,3.87
2023-03-13T03:16:27.862Z,3.77
2023-03-13T03:18:56.037Z,3.37
2023-03-13T03:21:24.029Z,4.07
2023-03-13T03:23:51.705Z,3.60
2023-03-13T03:26:19.837Z,4.20
2023-03-13T03:28:47.253Z,3.97
2023-03-13T03:31:17.777Z,4.07
2023-03-13T03:33:47.136Z,3.60
2023-03-13T03:36:22.587Z,4.40
2023-03-13T03:38:55.858Z,3.50
2023-03-13T03:41:23.056Z,3.83
2023-03-13T03:43:50.510Z,3.70
2023-03-13T03:46:19.682Z,3.70
2023-03-13T03:48:49.808Z,3.50
2023-03-13T03:51:16.983Z,4.30
2023-03-13T03:53:47.357Z,4.07
2023-03-13T03:56:14.459Z,4.30
2023-03-13T03:58:41.440Z,3.70
2023-03-13T04:01:08.643Z,3.53
2023-03-13T04:03:37.673Z,3.60
2023-03-13T04:06:10.719Z,3.67
2023-03-13T04:08:37.704Z,3.77
2023-03-13T04:11:10.662Z,4.03
2023-03-13T04:13:39.718Z,3.10
2023-03-13T04:16:09.420Z,3.13
2023-03-13T04:18:39.623Z,3.70
2023-03-13T04:21:07.242Z,3.53
2023-03-13T04:23:37.265Z,3.67
2023-03-13T04:26:04.455Z,3.53
2023-03-13T04:28:31.569Z,4.80
2023-03-13T04:31:01.463Z,3.13
2023-03-13T04:33:30.581Z,3.53
2023-03-13T04:35:58.681Z,3.00
2023-03-13T04:38:25.946Z,3.43
2023-03-13T04:40:54.029Z,3.33
2023-03-13T04:43:23.082Z,3.53
2023-03-13T04:45:55.059Z,3.23
2023-03-13T04:48:25.208Z,3.03
2023-03-13T04:50:53.224Z,3.57
2023-03-13T04:53:21.202Z,3.43
2023-03-13T04:55:51.482Z,3.07
2023-03-13T04:58:18.455Z,3.53
2023-03-13T05:00:45.524Z,3.17
2023-03-13T05:03:15.684Z,3.20
2023-03-13T05:05:42.589Z,3.07
2023-03-13T05:08:15.834Z,3.37
2023-03-13T05:10:43.596Z,3.43
2023-03-13T05:13:10.690Z,3.30
2023-03-13T05:15:37.843Z,3.30
2023-03-13T05:18:08.001Z,3.87
2023-03-13T05:20:35.017Z,3.40
2023-03-13T05:23:02.965Z,3.03
2023-03-13T05:25:32.054Z,3.63
2023-03-13T05:28:01.388Z,3.33
2023-03-13T05:30:30.395Z,3.13
2023-03-13T05:33:00.781Z,3.50
2023-03-13T05:35:27.912Z,3.73
2023-03-13T05:37:58.038Z,2.97
2023-03-13T05:40:28.081Z,3.40
2023-03-13T05:42:56.090Z,3.00
2023-03-13T05:45:26.099Z,3.40
2023-03-13T05:47:56.438Z,3.33
2023-03-13T05:50:26.024Z,3.47
2023-03-13T05:52:53.575Z,3.50
2023-03-13T05:55:20.785Z,3.27
2023-03-13T05:57:50.825Z,3.93
2023-03-13T06:00:21.274Z,3.40
2023-03-13T06:02:49.325Z,3.43
2023-03-13T06:05:17.377Z,3.53
2023-03-13T06:07:45.385Z,4.13
2023-03-13T06:10:12.714Z,3.93
2023-03-13T06:12:40.732Z,4.10
2023-03-13T06:15:11.991Z,3.47
2023-03-13T06:17:42.244Z,4.17
2023-03-13T06:20:10.216Z,3.80
2023-03-13T06:22:37.441Z,3.10
2023-03-13T06:25:07.895Z,3.57
2023-03-13T06:27:36.313Z,2.80
2023-03-13T06:30:04.184Z,3.03
2023-03-13T06:32:31.497Z,3.20
2023-03-13T06:35:01.682Z,3.00
2023-03-13T06:37:31.769Z,3.07
2023-03-13T06:39:59.881Z,3.07
2023-03-13T06:42:28.037Z,2.90
2023-03-13T06:44:57.097Z,2.40
2023-03-13T06:47:27.208Z,2.53
2023-03-13T06:49:54.315Z,2.90
2023-03-13T06:52:26.490Z,2.67
2023-03-13T06:55:01.258Z,2.60
2023-03-13T06:57:31.380Z,2.67
2023-03-13T07:00:00.410Z,2.80
2023-03-13T07:02:30.485Z,2.30
2023-03-13T07:04:58.506Z,2.40
2023-03-13T07:07:33.198Z,2.50
2023-03-13T07:10:04.994Z,2.43
2023-03-13T07:12:35.594Z,2.77
2023-03-13T07:15:02.951Z,2.20
2023-03-13T07:17:33.152Z,2.50
2023-03-13T07:20:01.279Z,2.30
2023-03-13T07:22:29.421Z,2.40
2023-03-13T07:24:59.506Z,2.30
2023-03-13T07:27:26.640Z,2.30
2023-03-13T07:29:56.910Z,2.03
2023-03-13T07:32:33.441Z,2.07
2023-03-13T07:35:04.858Z,2.33
2023-03-13T07:37:35.026Z,1.93
2023-03-13T07:40:02.079Z,1.83
2023-03-13T07:42:29.229Z,1.90
2023-03-13T07:44:59.300Z,2.20
2023-03-13T07:47:26.348Z,2.80
2023-03-13T07:49:54.097Z,2.07
2023-03-13T07:52:21.179Z,2.03
2023-03-13T07:54:50.332Z,2.03
2023-03-13T07:57:17.733Z,1.80
2023-03-13T07:59:45.716Z,2.23
2023-03-13T08:02:14.036Z,1.70
2023-03-13T08:04:41.340Z,1.43
2023-03-13T08:07:12.844Z,1.57
2023-03-13T08:09:41.530Z,2.00
2023-03-13T08:12:09.053Z,1.60
2023-03-13T08:14:37.040Z,1.50
2023-03-13T08:17:04.141Z,1.40
2023-03-13T08:19:38.628Z,1.33
2023-03-13T08:22:05.763Z,1.57
2023-03-13T08:24:32.664Z,1.40
2023-03-13T08:26:59.753Z,1.10
2023-03-13T08:29:28.795Z,1.30
2023-03-13T08:31:55.841Z,1.30
2023-03-13T08:34:23.902Z,1.30
2023-03-13T08:36:53.963Z,1.17
2023-03-13T08:39:21.476Z,1.23
2023-03-13T08:41:49.043Z,1.63
2023-03-13T08:44:18.431Z,1.17
2023-03-13T08:46:45.759Z,1.30
2023-03-13T08:49:13.630Z,1.30
2023-03-13T08:51:42.755Z,1.40
2023-03-13T08:54:15.941Z,1.17
2023-03-13T08:56:44.137Z,1.40
2023-03-13T08:59:15.699Z,0.83
2023-03-13T09:01:52.164Z,1.37
2023-03-13T09:04:21.198Z,1.20
2023-03-13T09:06:49.543Z,1.37
2023-03-13T09:09:16.593Z,1.40
2023-03-13T09:11:45.874Z,1.53
2023-03-13T09:14:13.877Z,1.40
2023-03-13T09:16:46.478Z,1.43
2023-03-13T09:19:15.600Z,1.83
2023-03-13T09:21:46.595Z,1.83
2023-03-13T09:24:15.063Z,1.73
2023-03-13T09:26:48.991Z,1.40
2023-03-13T09:29:25.240Z,1.50
2023-03-13T09:31:55.190Z,1.87
2023-03-13T09:34:25.744Z,1.37
2023-03-13T09:36:55.697Z,1.40
2023-03-13T09:39:22.644Z,1.50
2023-03-13T09:42:10.179Z,1.80
2023-03-13T09:45:09.922Z,1.33
2023-03-13T09:47:50.675Z,1.70
2023-03-13T09:50:29.259Z,1.70
2023-03-13T09:53:06.049Z,1.80
2023-03-13T09:55:36.874Z,1.57
2023-03-13T09:58:21.857Z,1.83
2023-03-13T10:01:03.423Z,1.90
2023-03-13T10:03:44.281Z,2.03
2023-03-13T10:06:35.476Z,2.20
2023-03-13T10:09:02.937Z,2.30
2023-03-13T10:12:15.186Z,2.47
2023-03-13T10:15:07.208Z,2.20
2023-03-13T10:17:39.339Z,2.37
2023-03-13T10:20:22.872Z,2.00
2023-03-13T10:22:58.670Z,2.20
2023-03-13T10:25:39.331Z,2.37
2023-03-13T10:28:14.892Z,2.60
2023-03-13T10:30:49.417Z,3.13
2023-03-13T10:33:26.967Z,2.73
2023-03-13T10:36:07.251Z,2.57
2023-03-13T10:38:56.121Z,3.33
2023-03-13T10:41:36.594Z,2.70
2023-03-13T10:44:30.760Z,2.90
2023-03-13T10:47:02.154Z,2.10
2023-03-13T10:49:32.647Z,2.70
2023-03-13T10:52:08.101Z,2.00
2023-03-13T10:54:40.045Z,2.80
2023-03-13T10:57:25.496Z,2.47
2023-03-13T10:59:56.052Z,2.80
2023-03-13T11:02:35.760Z,2.50
2023-03-13T11:05:23.937Z,2.87
2023-03-13T11:07:52.300Z,2.80
2023-03-13T11:10:23.671Z,3.30
2023-03-13T11:12:53.137Z,2.93
2023-03-13T11:15:48.434Z,2.83
2023-03-13T11:18:29.469Z,2.47
2023-03-13T11:21:08.710Z,2.70
2023-03-13T11:23:52.591Z,2.97
2023-03-13T11:26:40.344Z,3.20
2023-03-13T11:29:21.898Z,2.80
2023-03-13T11:32:00.661Z,3.30
2023-03-13T11:34:59.769Z,2.77
2023-03-13T11:37:31.526Z,2.80
2023-03-13T11:39:58.510Z,2.83
2023-03-13T11:42:35.572Z,3.00
2023-03-13T11:45:37.812Z,2.60
2023-03-13T11:48:52.032Z,2.87
2023-03-13T11:51:46.386Z,3.00
2023-03-13T11:54:50.543Z,3.23
2023-03-13T11:57:35.365Z,3.33
2023-03-13T12:00:26.185Z,3.10
2023-03-13T12:03:16.490Z,3.43
2023-03-13T12:05:57.530Z,3.67
2023-03-13T12:08:30.746Z,3.47
2023-03-13T12:11:25.978Z,3.87
2023-03-13T12:14:04.455Z,3.53
2023-03-13T12:16:51.519Z,3.60
2023-03-13T12:19:41.357Z,3.10
2023-03-13T12:22:23.429Z,3.57
2023-03-13T12:25:06.957Z,3.27
2023-03-13T12:27:43.179Z,3.53
2023-03-13T12:30:33.909Z,3.60
2023-03-13T12:33:16.845Z,3.47
2023-03-13T12:35:52.220Z,3.50
2023-03-13T12:38:30.958Z,3.20
2023-03-13T12:41:24.832Z,4.43
2023-03-13T12:44:07.766Z,3.47
2023-03-13T12:46:57.828Z,3.83
2023-03-13T12:49:57.103Z,4.10
2023-03-13T12:53:01.564Z,3.20
2023-03-13T12:55:52.758Z,3.90
2023-03-13T12:58:45.263Z,3.17
2023-03-13T13:01:33.817Z,3.40
2023-03-13T13:04:07.326Z,3.37
2023-03-13T13:06:55.217Z,3.40
2023-03-13T13:09:32.725Z,3.60
2023-03-13T13:12:20.025Z,4.27
2023-03-13T13:14:50.258Z,2.93
2023-03-13T13:17:17.394Z,3.20
2023-03-13T13:19:48.555Z,3.23
2023-03-13T13:22:36.758Z,3.30
2023-03-13T13:25:11.093Z,3.80
2023-03-13T13:27:41.064Z,3.50
2023-03-13T13:30:23.976Z,4.10
2023-03-13T13:33:18.753Z,3.70
2023-03-13T13:35:48.007Z,3.77
2023-03-13T13:38:18.136Z,3.60
2023-03-13T13:41:04.140Z,4.03
2023-03-13T13:43:36.211Z,3.57
2023-03-13T13:46:16.123Z,3.60
2023-03-13T13:48:45.528Z,4.03
2023-03-13T13:51:14.191Z,3.83
2023-03-13T13:53:45.186Z,3.47
2023-03-13T13:56:36.852Z,3.80
2023-03-13T13:59:05.024Z,3.53
2023-03-13T14:01:33.908Z,3.87
2023-03-13T14:04:27.145Z,3.30
2023-03-13T14:07:01.243Z,3.37
2023-03-13T14:09:40.334Z,3.57
2023-03-13T14:12:40.367Z,3.97
2023-03-13T14:15:16.719Z,3.67
2023-03-13T14:18:10.000Z,3.70
2023-03-13T14:20:38.641Z,3.00
2023-03-13T14:23:12.000Z,3.47
2023-03-13T14:25:48.999Z,3.67
2023-03-13T14:28:35.078Z,3.90
2023-03-13T14:31:02.171Z,4.23
2023-03-13T14:33:29.380Z,4.30
2023-03-13T14:35:57.948Z,4.80
2023-03-13T14:38:27.446Z,3.53
2023-03-13T14:40:55.774Z,4.17
2023-03-13T14:43:32.497Z,4.17
2023-03-13T14:46:12.907Z,4.13
2023-03-13T14:48:43.169Z,3.50
2023-03-13T14:51:24.000Z,3.73
2023-03-13T14:54:02.259Z,3.97
2023-03-13T14:56:45.307Z,3.70
2023-03-13T14:59:17.252Z,3.50
2023-03-13T15:01:47.033Z,3.97
2023-03-13T15:04:14.204Z,3.73
2023-03-13T15:06:42.335Z,4.47
2023-03-13T15:09:15.764Z,4.00
2023-03-13T15:12:06.091Z,3.90
2023-03-13T15:14:44.713Z,4.07
2023-03-13T15:17:17.545Z,3.53
2023-03-13T15:19:49.368Z,4.37
2023-03-13T15:22:22.148Z,4.80
2023-03-13T15:25:05.253Z,3.77
2023-03-13T15:27:34.612Z,4.07
2023-03-13T15:30:05.236Z,3.57
2023-03-13T15:32:39.214Z,4.10
2023-03-13T15:35:27.473Z,4.20
2023-03-13T15:37:57.382Z,4.40
2023-03-13T15:40:25.111Z,4.20
2023-03-13T15:42:54.080Z,4.10
2023-03-13T15:45:21.246Z,4.10
2023-03-13T15:47:51.331Z,4.23
2023-03-13T15:50:22.542Z,3.27
2023-03-13T15:52:52.574Z,3.87
2023-03-13T15:55:23.050Z,4.07
2023-03-13T15:57:51.135Z,4.03
2023-03-13T16:00:26.679Z,4.50
2023-03-13T16:02:53.814Z,4.37
2023-03-13T16:05:20.888Z,4.70
2023-03-13T16:07:49.016Z,4.87
2023-03-13T16:10:25.901Z,4.33
2023-03-13T16:12:54.885Z,4.40
2023-03-13T16:15:25.014Z,5.10
2023-03-13T16:17:53.976Z,4.77
2023-03-13T16:20:23.835Z,4.80
2023-03-13T16:22:53.674Z,4.13
2023-03-13T16:25:23.391Z,4.83
2023-03-13T16:27:55.146Z,4.67
2023-03-13T16:30:29.022Z,4.67
2023-03-13T16:32:56.432Z,4.90
2023-03-13T16:35:26.837Z,4.30
2023-03-13T16:37:55.824Z,4.70
2023-03-13T16:40:26.907Z,3.80
2023-03-13T16:42:56.988Z,4.13
2023-03-13T16:45:26.342Z,3.90
2023-03-13T16:47:54.605Z,4.17
2023-03-13T16:50:26.739Z,4.30
2023-03-13T16:52:54.672Z,5.10
2023-03-13T16:55:28.836Z,4.63
2023-03-13T16:57:59.875Z,4.37
2023-03-13T17:00:31.980Z,3.93
2023-03-13T17:03:02.306Z,3.80
2023-03-13T17:05:29.710Z,3.83
2023-03-13T17:07:57.837Z,4.60
2023-03-13T17:10:29.352Z,4.13
2023-03-13T17:12:56.715Z,4.33
2023-03-13T17:15:25.374Z,4.00
2023-03-13T17:17:54.318Z,4.83
2023-03-13T17:20:26.054Z,4.70
2023-03-13T17:23:01.285Z,4.13
2023-03-13T17:25:29.369Z,4.10
2023-03-13T17:27:57.426Z,3.93
2023-03-13T17:30:24.526Z,4.60
2023-03-13T17:32:51.780Z,4.50
2023-03-13T17:35:23.772Z,4.33
2023-03-13T17:37:51.072Z,3.60
2023-03-13T17:40:28.306Z,4.23
2023-03-13T17:42:57.746Z,4.07
2023-03-13T17:45:25.544Z,3.93
2023-03-13T17:47:55.872Z,4.10
2023-03-13T17:50:27.155Z,4.50
2023-03-13T17:52:55.971Z,3.70
2023-03-13T17:55:24.567Z,3.90
2023-03-13T17:57:53.833Z,4.50
2023-03-13T18:00:32.186Z,4.17
2023-03-13T18:02:59.460Z,4.17
2023-03-13T18:05:28.235Z,5.27
2023-03-13T18:07:58.390Z,4.70
2023-03-13T18:10:29.639Z,4.17
2023-03-13T18:12:57.641Z,4.57
2023-03-13T18:15:27.024Z,4.10
2023-03-13T18:17:56.277Z,4.63
2023-03-13T18:20:32.167Z,4.53
2023-03-13T18:23:01.284Z,5.10
2023-03-13T18:25:29.612Z,4.53
2023-03-13T18:27:58.112Z,4.73
2023-03-13T18:30:27.618Z,4.27
2023-03-13T18:32:54.886Z,4.47
2023-03-13T18:35:23.021Z,5.43
2023-03-13T18:37:53.219Z,4.23
2023-03-13T18:40:25.460Z,4.77
2023-03-13T18:42:53.540Z,4.77
2023-03-13T18:45:24.988Z,5.00
2023-03-13T18:47:53.707Z,5.13
2023-03-13T18:50:30.973Z,5.20
2023-03-13T18:53:00.508Z,4.87
2023-03-13T18:55:31.481Z,4.90
2023-03-13T18:58:01.769Z,5.50
2023-03-13T19:00:31.924Z,4.87
2023-03-13T19:03:02.208Z,4.47
2023-03-13T19:05:29.386Z,4.70
2023-03-13T19:07:59.567Z,4.73
2023-03-13T19:10:31.545Z,4.53
2023-03-13T19:12:59.788Z,5.30
2023-03-13T19:15:31.660Z,5.30
2023-03-13T19:18:03.550Z,4.87
2023-03-13T19:20:34.044Z,4.20
2023-03-13T19:23:01.130Z,4.60
2023-03-13T19:25:29.693Z,4.77
2023-03-13T19:27:56.628Z,5.17
2023-03-13T19:30:25.486Z,4.60
2023-03-13T19:32:55.706Z,4.87
2023-03-13T19:35:22.904Z,5.60
2023-03-13T19:37:53.102Z,4.77
2023-03-13T19:40:25.923Z,4.30
2023-03-13T19:42:54.240Z,4.57
2023-03-13T19:45:23.312Z,4.23
2023-03-13T19:47:52.421Z,4.60
2023-03-13T19:50:27.758Z,4.87
2023-03-13T19:52:54.871Z,4.53
2023-03-13T19:55:22.424Z,4.13
2023-03-13T19:57:49.568Z,4.47
2023-03-13T20:00:22.735Z,4.87
2023-03-13T20:02:52.137Z,4.80
2023-03-13T20:05:23.177Z,4.60
2023-03-13T20:07:50.298Z,5.30
2023-03-13T20:10:18.322Z,5.13
2023-03-13T20:12:48.386Z,4.40
2023-03-13T20:15:15.496Z,4.73
2023-03-13T20:17:42.587Z,4.83
2023-03-13T20:20:11.166Z,4.63
2023-03-13T20:22:38.376Z,4.50
2023-03-13T20:25:05.622Z,4.13
2023-03-13T20:27:35.282Z,4.77
2023-03-13T20:30:04.818Z,4.57
2023-03-13T20:32:32.928Z,5.00
2023-03-13T20:35:00.111Z,4.90
2023-03-13T20:37:30.204Z,4.43
2023-03-13T20:39:57.158Z,3.87
2023-03-13T20:42:24.105Z,4.30
2023-03-13T20:44:52.247Z,4.70
2023-03-13T20:47:19.659Z,4.23
2023-03-13T20:49:48.020Z,3.73
2023-03-13T20:52:20.056Z,4.27
2023-03-13T20:54:47.108Z,4.27
2023-03-13T20:57:19.606Z,4.13
2023-03-13T20:59:49.038Z,4.00
2023-03-13T21:02:19.177Z,4.23
2023-03-13T21:04:49.373Z,3.80
2023-03-13T21:07:20.627Z,4.17
2023-03-13T21:09:48.579Z,4.40
2023-03-13T21:12:15.663Z,4.67
2023-03-13T21:14:46.499Z,3.53
2023-03-13T21:17:15.939Z,3.33
2023-03-13T21:19:49.237Z,2.77
2023-03-13T21:22:16.254Z,3.47
2023-03-13T21:24:47.983Z,4.27
2023-03-13T21:27:17.675Z,3.87
2023-03-13T21:29:48.139Z,3.20
2023-03-13T21:32:15.404Z,3.67
2023-03-13T21:34:44.353Z,3.03
2023-03-13T21:37:13.223Z,3.67
2023-03-13T21:39:42.415Z,4.10
2023-03-13T21:42:17.156Z,4.20
2023-03-13T21:44:48.337Z,4.17
2023-03-13T21:47:24.370Z,3.77
2023-03-13T21:49:53.894Z,3.30
2023-03-13T21:52:24.194Z,4.00
2023-03-13T21:54:54.288Z,3.40
2023-03-13T21:57:21.264Z,3.47
2023-03-13T21:59:51.282Z,2.87
2023-03-13T22:02:18.343Z,3.40
2023-03-13T22:04:46.321Z,3.47
2023-03-13T22:07:13.381Z,3.30
2023-03-13T22:09:40.473Z,3.27
2023-03-13T22:12:07.611Z,2.03
2023-03-13T22:14:34.672Z,1.77
2023-03-13T22:17:01.889Z,1.77
2023-03-13T22:19:29.000Z,1.80
2023-03-13T22:21:57.401Z,1.70
2023-03-13T22:24:24.463Z,1.43
2023-03-13T22:26:53.441Z,1.27
2023-03-13T22:29:20.510Z,1.57
2023-03-13T22:31:49.450Z,1.83
2023-03-13T22:34:18.449Z,1.47
2023-03-13T22:36:48.447Z,1.47
2023-03-13T22:39:17.646Z,1.43
2023-03-13T22:41:44.683Z,2.00
2023-03-13T22:44:11.984Z,1.97
2023-03-13T22:46:42.123Z,1.57
2023-03-13T22:49:12.223Z,2.23
2023-03-13T22:51:45.207Z,1.33
2023-03-13T22:54:15.400Z,1.87
2023-03-13T22:56:42.389Z,1.23
2023-03-13T22:59:10.519Z,1.50
2023-03-13T23:01:38.490Z,2.60
2023-03-13T23:04:05.474Z,1.80
2023-03-13T23:06:38.839Z,1.53
2023-03-13T23:09:07.900Z,2.00
2023-03-13T23:11:37.052Z,1.63
2023-03-13T23:14:04.184Z,1.80
2023-03-13T23:16:33.314Z,1.50
2023-03-13T23:19:03.335Z,1.60
2023-03-13T23:21:30.402Z,1.70
2023-03-13T23:23:59.385Z,1.83
2023-03-13T23:26:26.426Z,2.27
2023-03-13T23:29:00.429Z,1.73
2023-03-13T23:31:29.466Z,1.77
2023-03-13T23:33:59.236Z,2.63
2023-03-13T23:36:29.228Z,1.57
2023-03-13T23:38:59.781Z,1.70
2023-03-13T23:41:27.833Z,1.90
2023-03-13T23:43:58.492Z,2.13
2023-03-13T23:46:28.596Z,2.23
2023-03-13T23:48:56.990Z,1.50
2023-03-13T23:51:24.696Z,2.03
2023-03-13T23:53:54.736Z,2.20
2023-03-13T23:56:25.596Z,2.13
2023-03-13T23:58:58.154Z,2.00
